Terminal Aerodrome Forecast
Issued by NWS

Home | Current Version | Previous Version | Text Only | Print | Product List | Glossary On
Versions: 1 2 3 4 5 6 7 8 9 10 11 12 13 14
995
FTUS46 KLOX 230537
TAFWJF
TAF
KWJF 230537Z 2306/2406 25015KT P6SM SCT025 BKN050
     FM230900 27017G25KT P6SM BKN025 OVC050
     FM231700 28025G35KT 6SM BLDU SCT050
     FM240300 29012KT P6SM SKC=

USA.gov is the U.S. government's official web portal to all federal, state and local government web resources and services.